Silver Cliff, Wisconsin
Current Conditions -  °F | °C
As of 7:54 AM on Thursday 23 Oct 2014 (Local Time) from KIMT Reporting Station
Haze Haze  
Wind Chill: 31°   Ceiling: 500
Heat Index: 37°   Visibility: 3mi
Dew Point: 35°   Wind: 8mph
Humidity: 93%   Direction: 150°SSE
Pressure: 30.11"   Gusts: NA
Location:  45.4596°N, 88.2404°W
Report Text: KIMT 231254Z AUTO 15007KT 3SM BR BKN005 03/02 A3011 RMK AO2 SLP208 T00280017
Loading
Personal Weather Stations






























Interactive Weather Map
Tropical Storm Tracking
New forecast layout! Learn more

10-Day Weather Forecast

Advertisements
Track Severe Weather on mobile